createdAt,value
2022-10-29T00:01:08.517Z,12.95
2022-10-29T00:03:41.392Z,12.95
2022-10-29T00:06:10.608Z,12.94
2022-10-29T00:08:38.588Z,13.04
2022-10-29T00:11:09.388Z,13.01
2022-10-29T00:13:36.862Z,13.06
2022-10-29T00:16:05.273Z,13.18
2022-10-29T00:18:32.412Z,13.12
2022-10-29T00:21:06.344Z,13.07
2022-10-29T00:23:33.700Z,13.08
2022-10-29T00:26:01.362Z,13.01
2022-10-29T00:28:28.677Z,13.15
2022-10-29T00:30:55.827Z,13.17
2022-10-29T00:33:22.914Z,13.25
2022-10-29T00:36:00.483Z,13.23
2022-10-29T00:38:27.936Z,13.38
2022-10-29T00:40:55.519Z,13.46
2022-10-29T00:43:23.931Z,13.39
2022-10-29T00:46:03.249Z,13.46
2022-10-29T00:48:31.843Z,13.51
2022-10-29T00:51:00.746Z,13.49
2022-10-29T00:53:30.742Z,13.58
2022-10-29T00:55:59.086Z,13.61
2022-10-29T00:58:26.968Z,13.61
2022-10-29T01:00:53.904Z,13.63
2022-10-29T01:03:20.783Z,13.52
2022-10-29T01:05:48.452Z,13.55
2022-10-29T01:08:15.668Z,13.45
2022-10-29T01:10:42.561Z,13.27
2022-10-29T01:13:12.785Z,13.12
2022-10-29T01:15:57.762Z,13.21
2022-10-29T01:18:35.860Z,13.12
2022-10-29T01:21:05.859Z,13.11
2022-10-29T01:23:56.029Z,13.19
2022-10-29T01:26:34.108Z,13.22
2022-10-29T01:29:04.300Z,13.19
2022-10-29T01:31:36.668Z,13.25
2022-10-29T01:34:13.192Z,13.27
2022-10-29T01:36:56.443Z,13.35
2022-10-29T01:39:30.427Z,13.39
2022-10-29T01:42:11.272Z,13.49
2022-10-29T01:44:41.329Z,13.44
2022-10-29T01:47:21.202Z,13.43
2022-10-29T01:49:51.779Z,13.41
2022-10-29T01:52:21.367Z,13.27
2022-10-29T01:54:48.895Z,13.23
2022-10-29T01:57:31.023Z,13.34
2022-10-29T02:00:00.271Z,13.29
2022-10-29T02:02:52.392Z,13.24
2022-10-29T02:05:27.640Z,13.22
2022-10-29T02:07:59.495Z,13.19
2022-10-29T02:10:33.878Z,13.36
2022-10-29T02:13:01.118Z,13.45
2022-10-29T02:15:36.407Z,13.44
2022-10-29T02:18:05.135Z,13.47
2022-10-29T02:20:32.539Z,13.44
2022-10-29T02:22:59.528Z,13.40
2022-10-29T02:25:27.040Z,13.32
2022-10-29T02:27:54.259Z,13.28
2022-10-29T02:30:21.310Z,13.35
2022-10-29T02:32:48.463Z,13.23
2022-10-29T02:35:15.243Z,13.10
2022-10-29T02:37:42.188Z,12.95
2022-10-29T02:40:09.619Z,12.76
2022-10-29T02:42:36.600Z,12.74
2022-10-29T02:45:03.729Z,12.73
2022-10-29T02:47:31.035Z,12.77
2022-10-29T02:49:57.798Z,12.69
2022-10-29T02:52:24.879Z,12.62
2022-10-29T02:54:51.993Z,12.41
2022-10-29T02:57:19.121Z,12.43
2022-10-29T02:59:45.982Z,12.41
2022-10-29T03:02:13.316Z,12.37
2022-10-29T03:04:41.404Z,12.24
2022-10-29T03:07:08.267Z,12.03
2022-10-29T03:09:35.318Z,11.95
2022-10-29T03:12:02.256Z,11.94
2022-10-29T03:14:29.038Z,12.09
2022-10-29T03:16:56.155Z,12.15
2022-10-29T03:19:23.103Z,12.01
2022-10-29T03:21:49.975Z,11.84
2022-10-29T03:24:17.031Z,11.83
2022-10-29T03:26:43.826Z,11.86
2022-10-29T03:29:10.773Z,11.79
2022-10-29T03:31:38.026Z,11.82
2022-10-29T03:34:04.859Z,11.81
2022-10-29T03:36:31.717Z,11.73
2022-10-29T03:38:58.970Z,11.75
2022-10-29T03:41:25.769Z,11.83
2022-10-29T03:43:52.714Z,11.90
2022-10-29T03:46:20.157Z,12.04
2022-10-29T03:48:49.375Z,12.04
2022-10-29T03:51:16.239Z,12.09
2022-10-29T03:53:43.279Z,12.16
2022-10-29T03:56:10.720Z,12.21
2022-10-29T03:58:37.892Z,12.42
2022-10-29T04:01:05.974Z,12.49
2022-10-29T04:03:33.912Z,12.37
2022-10-29T04:06:02.356Z,12.46
2022-10-29T04:08:29.635Z,12.33
2022-10-29T04:10:56.703Z,12.27
2022-10-29T04:13:23.818Z,12.24
2022-10-29T04:15:53.716Z,12.34
2022-10-29T04:18:20.568Z,12.08
2022-10-29T04:22:22.909Z,12.19
2022-10-29T04:29:08.525Z,12.20
2022-10-29T04:31:36.195Z,12.06
2022-10-29T04:34:03.352Z,12.07
2022-10-29T04:36:30.206Z,11.98
2022-10-29T04:38:57.200Z,12.00
2022-10-29T04:41:24.093Z,12.01
2022-10-29T04:43:50.977Z,11.76
2022-10-29T04:46:18.031Z,11.71
2022-10-29T04:48:44.967Z,11.66
2022-10-29T04:51:22.416Z,11.57
2022-10-29T04:53:49.567Z,11.54
2022-10-29T04:56:16.793Z,11.56
2022-10-29T04:58:43.735Z,11.57
2022-10-29T05:01:11.070Z,11.39
2022-10-29T05:03:38.103Z,11.40
2022-10-29T05:06:05.664Z,11.35
2022-10-29T05:08:32.740Z,11.32
2022-10-29T05:11:06.229Z,11.34
2022-10-29T05:13:33.426Z,11.17
2022-10-29T05:16:00.632Z,11.12
2022-10-29T05:18:27.622Z,11.08
2022-10-29T05:20:55.012Z,11.06
2022-10-29T05:23:21.924Z,11.06
2022-10-29T05:25:51.347Z,11.18
2022-10-29T05:28:19.575Z,11.14
2022-10-29T05:30:47.505Z,11.12
2022-10-29T05:33:15.812Z,11.16
2022-10-29T05:35:42.924Z,11.06
2022-10-29T05:38:10.476Z,11.09
2022-10-29T05:40:37.803Z,11.02
2022-10-29T05:43:04.595Z,11.01
2022-10-29T05:45:31.968Z,10.85
2022-10-29T05:47:59.727Z,10.89
2022-10-29T05:50:27.246Z,10.78
2022-10-29T05:52:58.422Z,10.66
2022-10-29T05:55:26.769Z,10.67
2022-10-29T05:58:04.116Z,10.65
2022-10-29T06:00:32.406Z,10.78
2022-10-29T06:02:59.549Z,10.84
2022-10-29T06:05:27.043Z,10.86
2022-10-29T06:07:57.925Z,11.01
2022-10-29T06:10:26.028Z,10.85
2022-10-29T06:12:53.055Z,10.79
2022-10-29T06:15:20.817Z,10.75
2022-10-29T06:17:48.261Z,10.81
2022-10-29T06:20:16.785Z,10.89
2022-10-29T06:22:43.594Z,10.83
2022-10-29T06:25:10.642Z,10.90
2022-10-29T06:27:38.727Z,10.74
2022-10-29T06:30:06.053Z,10.81
2022-10-29T06:32:32.891Z,10.77
2022-10-29T06:34:59.999Z,10.78
2022-10-29T06:37:26.931Z,10.96
2022-10-29T06:39:54.011Z,11.07
2022-10-29T06:42:20.892Z,11.10
2022-10-29T06:44:47.919Z,11.12
2022-10-29T06:47:14.998Z,11.15
2022-10-29T06:49:42.091Z,11.21
2022-10-29T06:52:08.942Z,11.30
2022-10-29T06:54:35.805Z,11.43
2022-10-29T06:57:02.966Z,11.50
2022-10-29T06:59:30.054Z,11.44
2022-10-29T07:01:57.161Z,11.43
2022-10-29T07:04:24.151Z,11.49
2022-10-29T07:06:51.097Z,11.56
2022-10-29T07:09:18.299Z,11.65
2022-10-29T07:11:45.172Z,11.70
2022-10-29T07:14:12.212Z,11.72
2022-10-29T07:16:39.094Z,11.80
2022-10-29T07:19:06.229Z,11.81
2022-10-29T07:21:33.107Z,11.80
2022-10-29T07:23:59.925Z,11.93
2022-10-29T07:26:27.136Z,12.13
2022-10-29T07:28:57.887Z,12.12
2022-10-29T07:31:25.051Z,12.20
2022-10-29T07:33:51.983Z,12.11
2022-10-29T07:36:19.218Z,12.12
2022-10-29T07:38:46.688Z,12.25
2022-10-29T07:41:14.051Z,12.25
2022-10-29T07:43:41.363Z,12.36
2022-10-29T07:46:08.484Z,12.49
2022-10-29T07:48:35.270Z,12.62
2022-10-29T07:51:02.647Z,12.82
2022-10-29T07:53:31.516Z,12.89
2022-10-29T07:55:59.115Z,13.00
2022-10-29T07:58:26.356Z,13.35
2022-10-29T08:00:53.655Z,13.63
2022-10-29T08:03:21.276Z,13.87
2022-10-29T08:05:56.234Z,13.81
2022-10-29T08:08:24.094Z,14.27
2022-10-29T08:10:51.218Z,14.47
2022-10-29T08:13:18.114Z,14.77
2022-10-29T08:15:48.310Z,15.19
2022-10-29T08:18:16.187Z,15.42
2022-10-29T08:20:43.211Z,15.76
2022-10-29T08:23:10.567Z,15.79
2022-10-29T08:25:41.619Z,15.89
2022-10-29T08:28:10.546Z,15.97
2022-10-29T08:30:37.916Z,16.16
2022-10-29T08:33:05.654Z,16.07
2022-10-29T08:35:33.078Z,16.28
2022-10-29T08:38:00.151Z,16.32
2022-10-29T08:40:50.223Z,16.68
2022-10-29T08:43:29.474Z,17.06
2022-10-29T08:45:57.229Z,17.08
2022-10-29T08:48:30.461Z,17.18
2022-10-29T08:51:04.912Z,17.44
2022-10-29T08:53:40.587Z,17.73
2022-10-29T08:56:12.531Z,17.71
2022-10-29T08:58:59.860Z,17.78
2022-10-29T09:01:27.063Z,18.02
2022-10-29T09:03:54.749Z,18.09
2022-10-29T09:06:24.723Z,18.18
2022-10-29T09:08:58.653Z,18.15
2022-10-29T09:11:37.539Z,18.06
2022-10-29T09:14:22.923Z,17.97
2022-10-29T09:16:57.483Z,17.79
2022-10-29T09:19:36.472Z,17.60
2022-10-29T09:22:21.916Z,17.50
2022-10-29T09:25:09.276Z,17.55
2022-10-29T09:27:36.103Z,17.76
2022-10-29T09:30:06.993Z,17.99
2022-10-29T09:32:56.903Z,18.01
2022-10-29T09:35:37.256Z,18.03
2022-10-29T09:38:09.095Z,18.11
2022-10-29T09:40:37.846Z,18.17
2022-10-29T09:43:27.835Z,18.15
2022-10-29T09:46:13.422Z,18.03
2022-10-29T09:49:02.488Z,18.02
2022-10-29T09:51:32.763Z,17.96
2022-10-29T09:53:59.794Z,17.95
2022-10-29T09:56:26.698Z,17.88
2022-10-29T09:58:58.256Z,17.63
2022-10-29T10:01:25.098Z,17.54
2022-10-29T10:03:57.678Z,17.31
2022-10-29T10:06:24.476Z,17.15
2022-10-29T10:08:54.580Z,17.15
2022-10-29T10:11:21.803Z,17.08
2022-10-29T10:13:59.409Z,17.16
2022-10-29T10:16:30.231Z,17.20
2022-10-29T10:18:57.352Z,17.20
2022-10-29T10:21:31.567Z,17.21
2022-10-29T10:23:59.779Z,17.23
2022-10-29T10:26:26.627Z,17.23
2022-10-29T10:29:12.443Z,17.22
2022-10-29T10:31:40.224Z,17.20
2022-10-29T10:34:21.201Z,17.26
2022-10-29T10:36:55.507Z,17.47
2022-10-29T10:39:35.372Z,17.71
2022-10-29T10:42:04.456Z,17.92
2022-10-29T10:44:32.075Z,18.12
2022-10-29T10:47:05.103Z,18.28
2022-10-29T10:49:34.036Z,18.35
2022-10-29T10:52:04.151Z,18.42
2022-10-29T10:54:44.805Z,18.32
2022-10-29T10:57:11.972Z,18.29
2022-10-29T10:59:38.831Z,18.03
2022-10-29T11:02:08.874Z,17.85
2022-10-29T11:04:39.184Z,17.73
2022-10-29T11:07:08.272Z,17.59
2022-10-29T11:09:40.494Z,17.50
2022-10-29T11:12:24.049Z,17.39
2022-10-29T11:14:53.919Z,17.36
2022-10-29T11:17:23.968Z,17.52
2022-10-29T11:19:52.351Z,17.55
2022-10-29T11:22:22.270Z,17.66
2022-10-29T11:25:09.371Z,17.86
2022-10-29T11:27:48.151Z,17.94
2022-10-29T11:30:16.043Z,17.87
2022-10-29T11:32:52.394Z,17.84
2022-10-29T11:35:28.456Z,17.81
2022-10-29T11:38:24.858Z,17.70
2022-10-29T11:40:58.829Z,17.81
2022-10-29T11:43:26.054Z,17.98
2022-10-29T11:46:09.150Z,17.91
2022-10-29T11:49:04.216Z,17.83
2022-10-29T11:51:31.011Z,17.83
2022-10-29T11:54:07.076Z,17.80
2022-10-29T11:56:33.869Z,17.75
2022-10-29T11:59:00.964Z,17.78
2022-10-29T12:01:36.750Z,17.98
2022-10-29T12:04:24.238Z,18.23
2022-10-29T12:06:55.012Z,18.51
2022-10-29T12:09:37.573Z,18.71
2022-10-29T12:12:07.452Z,18.81
2022-10-29T12:14:44.478Z,18.82
2022-10-29T12:17:46.904Z,18.73
2022-10-29T12:20:26.820Z,18.59
2022-10-29T12:23:05.013Z,18.47
2022-10-29T12:25:55.942Z,18.42
2022-10-29T12:28:32.767Z,18.28
2022-10-29T12:30:59.764Z,18.06
2022-10-29T12:33:48.530Z,17.86
2022-10-29T12:36:21.564Z,17.62
2022-10-29T12:38:54.815Z,17.49
2022-10-29T12:41:51.347Z,17.34
2022-10-29T12:44:34.948Z,17.11
2022-10-29T12:47:07.684Z,17.04
2022-10-29T12:49:34.559Z,17.09
2022-10-29T12:52:10.507Z,17.09
2022-10-29T12:54:37.771Z,17.15
2022-10-29T12:57:13.774Z,17.19
2022-10-29T12:59:42.115Z,17.20
2022-10-29T13:02:27.653Z,17.24
2022-10-29T13:05:09.727Z,17.29
2022-10-29T13:07:38.121Z,17.42
2022-10-29T13:10:28.808Z,17.51
2022-10-29T13:13:01.322Z,17.60
2022-10-29T13:15:37.451Z,17.58
2022-10-29T13:18:18.147Z,17.64
2022-10-29T13:20:49.363Z,17.71
2022-10-29T13:23:22.209Z,17.77
2022-10-29T13:25:50.424Z,17.77
2022-10-29T13:28:17.340Z,17.73
2022-10-29T13:30:45.344Z,17.69
2022-10-29T13:33:21.971Z,17.63
2022-10-29T13:35:56.606Z,17.59
2022-10-29T13:38:57.879Z,17.53
2022-10-29T13:41:48.497Z,17.43
2022-10-29T13:44:21.710Z,17.33
2022-10-29T13:47:05.251Z,17.25
2022-10-29T13:49:45.398Z,17.19
2022-10-29T13:52:15.775Z,17.14
2022-10-29T13:54:49.205Z,17.05
2022-10-29T13:57:39.310Z,16.96
2022-10-29T14:00:08.564Z,16.89
2022-10-29T14:02:39.578Z,16.82
2022-10-29T14:05:06.847Z,16.78
2022-10-29T14:07:46.186Z,16.73
2022-10-29T14:10:18.508Z,16.69
2022-10-29T14:12:47.416Z,16.74
2022-10-29T14:15:15.159Z,16.76
2022-10-29T14:17:42.457Z,16.77
2022-10-29T14:20:21.887Z,16.81
2022-10-29T14:22:48.907Z,16.85
2022-10-29T14:25:25.150Z,16.83
2022-10-29T14:28:09.459Z,16.83
2022-10-29T14:30:36.679Z,16.82
2022-10-29T14:33:16.956Z,16.77
2022-10-29T14:35:44.427Z,16.70
2022-10-29T14:38:12.665Z,16.68
2022-10-29T14:40:40.195Z,16.72
2022-10-29T14:43:07.257Z,16.75
2022-10-29T14:45:34.123Z,16.70
2022-10-29T14:48:03.552Z,16.68
2022-10-29T14:50:31.101Z,16.66
2022-10-29T14:53:03.891Z,16.62
2022-10-29T14:55:35.588Z,16.58
2022-10-29T14:58:13.676Z,16.52
2022-10-29T15:00:52.029Z,16.43
2022-10-29T15:03:23.645Z,16.29
2022-10-29T15:05:51.744Z,16.18
2022-10-29T15:08:30.889Z,16.15
2022-10-29T15:10:59.413Z,16.09
2022-10-29T15:13:27.490Z,15.98
2022-10-29T15:15:57.075Z,15.89
2022-10-29T15:18:25.191Z,15.83
2022-10-29T15:20:54.793Z,15.71
2022-10-29T15:23:30.019Z,15.59
2022-10-29T15:26:02.390Z,15.48
2022-10-29T15:28:31.030Z,15.41
2022-10-29T15:31:01.488Z,15.33
2022-10-29T15:33:29.356Z,15.22
2022-10-29T15:35:58.688Z,15.15
2022-10-29T15:38:52.257Z,15.07
2022-10-29T15:41:20.001Z,14.93
2022-10-29T15:43:57.520Z,14.83
2022-10-29T15:46:27.576Z,14.74
2022-10-29T15:48:54.932Z,14.69
2022-10-29T15:51:29.152Z,14.60
2022-10-29T15:53:57.351Z,14.54
2022-10-29T15:56:25.004Z,14.42
2022-10-29T15:58:53.238Z,14.34
2022-10-29T16:01:20.305Z,14.25
2022-10-29T16:03:47.423Z,14.24
2022-10-29T16:06:15.615Z,14.27
2022-10-29T16:08:45.588Z,14.28
2022-10-29T16:11:13.886Z,14.24
2022-10-29T16:13:41.124Z,14.19
2022-10-29T16:16:16.108Z,14.15
2022-10-29T16:18:43.838Z,14.18
2022-10-29T16:21:13.176Z,14.17
2022-10-29T16:23:40.729Z,14.10
2022-10-29T16:26:09.641Z,14.13
2022-10-29T16:28:36.832Z,14.06
2022-10-29T16:31:03.844Z,14.08
2022-10-29T16:33:31.150Z,14.09
2022-10-29T16:35:58.127Z,14.10
2022-10-29T16:38:25.383Z,14.09
2022-10-29T16:40:52.273Z,14.13
2022-10-29T16:43:19.614Z,14.14
2022-10-29T16:45:46.625Z,14.14
2022-10-29T16:48:13.602Z,14.14
2022-10-29T16:50:40.979Z,14.12
2022-10-29T16:53:10.373Z,14.09
2022-10-29T16:55:38.253Z,14.06
2022-10-29T16:58:15.628Z,14.12
2022-10-29T17:00:42.739Z,14.11
2022-10-29T17:03:12.519Z,14.14
2022-10-29T17:05:41.252Z,14.09
2022-10-29T17:08:08.526Z,14.09
2022-10-29T17:10:36.704Z,14.05
2022-10-29T17:13:03.793Z,14.01
2022-10-29T17:15:30.755Z,14.01
2022-10-29T17:17:58.646Z,13.93
2022-10-29T17:20:25.842Z,13.94
2022-10-29T17:22:53.017Z,13.89
2022-10-29T17:25:20.622Z,13.89
2022-10-29T17:27:47.637Z,13.80
2022-10-29T17:30:14.881Z,13.71
2022-10-29T17:32:41.842Z,13.71
2022-10-29T17:35:09.316Z,13.74
2022-10-29T17:37:36.427Z,13.60
2022-10-29T17:40:07.921Z,13.66
2022-10-29T17:42:35.778Z,13.72
2022-10-29T17:45:02.868Z,13.75
2022-10-29T17:47:30.500Z,13.78
2022-10-29T17:49:57.668Z,13.82
2022-10-29T17:52:24.808Z,13.85
2022-10-29T17:54:51.819Z,13.82
2022-10-29T17:57:18.700Z,13.86
2022-10-29T17:59:45.838Z,13.87
2022-10-29T18:02:12.789Z,13.81
2022-10-29T18:04:40.062Z,13.78
2022-10-29T18:07:07.187Z,13.76
2022-10-29T18:09:34.559Z,13.76
2022-10-29T18:12:01.525Z,13.76
2022-10-29T18:14:28.487Z,13.70
2022-10-29T18:16:55.576Z,13.67
2022-10-29T18:19:23.960Z,13.71
2022-10-29T18:21:51.012Z,13.72
2022-10-29T18:24:19.461Z,13.69
2022-10-29T18:26:49.357Z,13.68
2022-10-29T18:29:16.512Z,13.69
2022-10-29T18:31:45.923Z,13.67
2022-10-29T18:34:14.920Z,13.63
2022-10-29T18:36:43.155Z,13.55
2022-10-29T18:39:10.713Z,13.52
2022-10-29T18:41:37.674Z,13.42
2022-10-29T18:44:04.739Z,13.41
2022-10-29T18:46:32.262Z,13.44
2022-10-29T18:49:00.232Z,13.48
2022-10-29T18:51:31.031Z,13.46
2022-10-29T18:53:59.250Z,13.37
2022-10-29T18:56:27.371Z,13.27
2022-10-29T18:58:55.903Z,13.25
2022-10-29T19:01:24.612Z,13.21
2022-10-29T19:03:55.436Z,13.24
2022-10-29T19:06:23.461Z,13.17
2022-10-29T19:08:51.194Z,13.13
2022-10-29T19:11:19.678Z,13.03
2022-10-29T19:13:50.597Z,13.04
2022-10-29T19:16:17.411Z,13.07
2022-10-29T19:18:44.609Z,13.03
2022-10-29T19:21:12.887Z,12.95
2022-10-29T19:23:40.145Z,12.98
2022-10-29T19:26:11.560Z,13.00
2022-10-29T19:28:39.221Z,12.99
2022-10-29T19:31:07.511Z,12.98
2022-10-29T19:33:34.914Z,12.98
2022-10-29T19:36:02.180Z,12.99
2022-10-29T19:38:29.382Z,12.96
2022-10-29T19:40:57.267Z,12.92
2022-10-29T19:43:24.639Z,12.90
2022-10-29T19:45:53.392Z,12.89
2022-10-29T19:48:21.246Z,12.88
2022-10-29T19:50:56.665Z,12.85
2022-10-29T19:53:24.509Z,12.81
2022-10-29T19:55:52.390Z,12.68
2022-10-29T19:58:24.448Z,12.72
2022-10-29T20:00:52.278Z,12.74
2022-10-29T20:03:19.817Z,12.66
2022-10-29T20:05:47.295Z,12.69
2022-10-29T20:08:16.313Z,12.66
2022-10-29T20:10:44.195Z,12.62
2022-10-29T20:13:11.476Z,12.58
2022-10-29T20:15:39.947Z,12.59
2022-10-29T20:18:07.332Z,12.56
2022-10-29T20:20:35.730Z,12.55
2022-10-29T20:23:03.365Z,12.56
2022-10-29T20:25:30.597Z,12.49
2022-10-29T20:28:00.512Z,12.41
2022-10-29T20:30:28.103Z,12.42
2022-10-29T20:32:55.558Z,12.47
2022-10-29T20:35:23.234Z,12.47
2022-10-29T20:37:50.361Z,12.37
2022-10-29T20:40:17.851Z,12.39
2022-10-29T20:42:45.474Z,12.34
2022-10-29T20:45:12.799Z,12.33
2022-10-29T20:47:40.296Z,12.36
2022-10-29T20:50:08.210Z,12.38
2022-10-29T20:52:35.195Z,12.34
2022-10-29T20:55:02.659Z,12.27
2022-10-29T20:57:30.401Z,12.21
2022-10-29T20:59:59.139Z,12.23
2022-10-29T21:02:26.712Z,12.23
2022-10-29T21:04:54.249Z,12.21
2022-10-29T21:07:21.575Z,12.06
2022-10-29T21:09:48.748Z,12.01
2022-10-29T21:12:15.651Z,12.01
2022-10-29T21:14:42.768Z,12.14
2022-10-29T21:17:09.648Z,12.15
2022-10-29T21:19:36.451Z,12.05
2022-10-29T21:22:03.616Z,11.98
2022-10-29T21:24:30.471Z,12.15
2022-10-29T21:26:59.170Z,12.17
2022-10-29T21:29:26.305Z,12.24
2022-10-29T21:31:53.100Z,12.24
2022-10-29T21:34:20.244Z,12.22
2022-10-29T21:36:47.517Z,12.15
2022-10-29T21:39:15.782Z,12.09
2022-10-29T21:41:44.180Z,12.15
2022-10-29T21:44:13.334Z,12.05
2022-10-29T21:46:41.330Z,12.02
2022-10-29T21:49:08.613Z,11.99
2022-10-29T21:51:36.936Z,11.98
2022-10-29T21:54:04.885Z,11.94
2022-10-29T21:56:32.256Z,11.90
2022-10-29T21:59:00.223Z,11.85
2022-10-29T22:01:27.768Z,11.82
2022-10-29T22:03:55.117Z,11.88
2022-10-29T22:06:25.202Z,11.90
2022-10-29T22:08:53.338Z,11.90
2022-10-29T22:11:20.588Z,11.90
2022-10-29T22:13:48.544Z,11.93
2022-10-29T22:16:17.490Z,11.95
2022-10-29T22:18:44.920Z,11.87
2022-10-29T22:21:25.374Z,11.90
2022-10-29T22:23:54.558Z,11.80
2022-10-29T22:26:23.503Z,11.75
2022-10-29T22:28:50.444Z,11.82
2022-10-29T22:31:18.541Z,11.81
2022-10-29T22:33:47.195Z,11.86
2022-10-29T22:36:15.422Z,11.72
2022-10-29T22:38:42.695Z,11.65
2022-10-29T22:41:11.580Z,11.63
2022-10-29T22:43:38.641Z,11.60
2022-10-29T22:46:06.695Z,11.73
2022-10-29T22:48:33.794Z,11.57
2022-10-29T22:51:07.600Z,11.75
2022-10-29T22:53:35.183Z,11.78
2022-10-29T22:56:02.332Z,11.74
2022-10-29T22:58:29.403Z,11.77
2022-10-29T23:01:10.043Z,11.67
2022-10-29T23:03:38.232Z,11.69
2022-10-29T23:06:06.784Z,11.67
2022-10-29T23:08:33.940Z,11.68
2022-10-29T23:11:08.733Z,11.64
2022-10-29T23:13:36.415Z,11.63
2022-10-29T23:16:03.347Z,11.65
2022-10-29T23:18:30.268Z,11.60
2022-10-29T23:20:58.335Z,11.52
2022-10-29T23:23:25.141Z,11.47
2022-10-29T23:25:52.602Z,11.48
2022-10-29T23:28:19.695Z,11.49
2022-10-29T23:30:52.338Z,11.50
2022-10-29T23:33:19.121Z,11.55
2022-10-29T23:35:46.242Z,11.54
2022-10-29T23:38:13.044Z,11.44
2022-10-29T23:40:39.899Z,11.48
2022-10-29T23:43:07.193Z,11.38
2022-10-29T23:45:34.011Z,11.39
2022-10-29T23:48:01.044Z,11.36
2022-10-29T23:50:28.252Z,11.38
2022-10-29T23:52:55.209Z,11.40
2022-10-29T23:55:22.298Z,11.33
2022-10-29T23:57:49.361Z,11.25
